Time;durP1;ratioP1;P1;durP2;ratioP2;P2;SDS_P1;SDS_P2;PMS_P1;PMS_P2;Temp;Humidity;BMP_temperature;BMP_pressure;BME280_temperature;BME280_humidity;BME280_pressure;Samples;Min_cycle;Max_cycle;Signal;HPM_P1;HPM_P2
2021/01/16 00:00:21;;;;;;;0.45;0.45;;;;;;;8.13;87.29;100698.00;4992128;28;20576;-56
2021/01/16 00:02:48;;;;;;;0.60;0.32;;;;;;;8.13;87.47;100700.75;4983090;28;20071;-54
2021/01/16 00:05:17;;;;;;;1.00;0.30;;;;;;;8.11;87.59;100697.50;4978985;28;20465;-54
2021/01/16 00:07:45;;;;;;;1.23;0.30;;;;;;;8.10;87.65;100687.63;4982548;28;20047;-55
2021/01/16 00:10:16;;;;;;;1.02;0.47;;;;;;;8.09;88.05;100692.31;4997534;28;20045;-60
2021/01/16 00:12:49;;;;;;;0.30;0.30;;;;;;;8.08;88.04;100678.84;5009343;28;20140;-55
2021/01/16 00:15:16;;;;;;;1.35;1.08;;;;;;;8.09;88.21;100677.72;5006996;28;20046;-61
2021/01/16 00:17:43;;;;;;;0.60;0.50;;;;;;;8.11;87.96;100667.97;4987895;28;20124;-62
2021/01/16 00:20:12;;;;;;;0.73;0.55;;;;;;;8.11;88.06;100656.94;4986969;28;20042;-59
2021/01/16 00:22:51;;;;;;;1.20;0.52;;;;;;;8.13;88.15;100642.84;4987394;28;20471;-58
2021/01/16 00:25:18;;;;;;;0.10;0.10;;;;;;;8.16;88.05;100642.16;4989420;28;20073;-57
2021/01/16 00:27:45;;;;;;;1.48;0.60;;;;;;;8.20;88.07;100640.38;4989899;28;20054;-59
2021/01/16 00:30:12;;;;;;;0.65;0.30;;;;;;;8.23;88.06;100620.41;4989529;28;20133;-59
2021/01/16 00:32:40;;;;;;;0.38;0.35;;;;;;;8.25;88.05;100623.63;4967930;28;20049;-60
2021/01/16 00:35:13;;;;;;;1.08;0.32;;;;;;;8.25;87.87;100607.91;4989914;28;20038;-57
2021/01/16 00:37:40;;;;;;;0.63;0.50;;;;;;;8.28;88.11;100611.97;5002922;28;20463;-58
2021/01/16 00:40:09;;;;;;;0.50;0.32;;;;;;;8.30;88.03;100606.94;4992791;28;20440;-54
2021/01/16 00:42:46;;;;;;;1.20;0.60;;;;;;;8.31;88.04;100594.75;4991494;28;21396;-57
2021/01/16 00:45:14;;;;;;;1.65;0.43;;;;;;;8.34;88.04;100583.84;4970056;28;20050;-57
2021/01/16 00:47:42;;;;;;;0.50;0.50;;;;;;;8.37;87.97;100588.69;4991872;28;20101;-57
2021/01/16 00:50:14;;;;;;;0.65;0.22;;;;;;;8.41;87.94;100583.34;4991524;28;20112;-58
2021/01/16 00:52:41;;;;;;;0.60;0.30;;;;;;;8.43;87.83;100581.84;4992317;28;20046;-55
2021/01/16 00:55:09;;;;;;;0.65;0.25;;;;;;;8.46;87.76;100585.91;5005217;28;20038;-59
2021/01/16 00:57:36;;;;;;;0.20;0.10;;;;;;;8.49;87.97;100576.94;4992509;28;20061;-55
2021/01/16 01:00:06;;;;;;;0.08;0.08;;;;;;;8.53;87.65;100566.84;4992262;28;20042;-58
2021/01/16 01:02:34;;;;;;;0.32;0.15;;;;;;;8.54;87.47;100561.00;4991777;28;20095;-59
2021/01/16 01:05:01;;;;;;;0.45;0.00;;;;;;;8.56;87.61;100549.63;5009789;28;20042;-57
2021/01/16 01:07:27;;;;;;;0.30;0.10;;;;;;;8.58;87.84;100556.41;4994776;28;20451;-57
2021/01/16 01:09:53;;;;;;;0.17;0.17;;;;;;;8.62;87.58;100545.53;4998185;28;20069;-57
2021/01/16 01:12:19;;;;;;;1.30;0.20;;;;;;;8.65;87.67;100539.34;4990673;28;20057;-58
2021/01/16 01:14:46;;;;;;;0.10;0.10;;;;;;;8.71;87.63;100551.75;4973109;28;20146;-57
2021/01/16 01:17:17;;;;;;;0.13;0.00;;;;;;;8.74;87.33;100547.53;4972793;28;20100;-58
2021/01/16 01:19:44;;;;;;;0.43;0.10;;;;;;;8.78;87.55;100534.69;4990921;28;20051;-58
2021/01/16 01:22:11;;;;;;;0.15;0.10;;;;;;;8.80;87.47;100535.94;4990352;28;20054;-57
2021/01/16 01:24:38;;;;;;;0.10;0.10;;;;;;;8.80;87.53;100524.09;4992060;28;20077;-58
2021/01/16 01:27:06;;;;;;;0.10;0.10;;;;;;;8.81;87.52;100521.00;4988682;28;20034;-56
2021/01/16 01:29:33;;;;;;;0.00;0.00;;;;;;;8.85;87.49;100521.13;4991498;28;20460;-57
2021/01/16 01:32:00;;;;;;;0.17;0.10;;;;;;;8.86;87.44;100509.75;4989763;28;20066;-55
2021/01/16 01:34:26;;;;;;;0.13;0.10;;;;;;;8.87;87.38;100516.88;4991005;28;20065;-57
2021/01/16 01:36:52;;;;;;;0.35;0.00;;;;;;;8.89;87.37;100520.13;4990649;28;20065;-58
2021/01/16 01:39:19;;;;;;;0.05;0.05;;;;;;;8.91;87.31;100506.78;4991618;28;20093;-57
2021/01/16 01:41:46;;;;;;;0.20;0.20;;;;;;;8.92;87.46;100513.13;4991217;28;20057;-58
2021/01/16 01:44:12;;;;;;;0.10;0.10;;;;;;;8.94;87.37;100514.38;4990866;28;20042;-55
2021/01/16 01:46:39;;;;;;;0.20;0.15;;;;;;;8.98;87.47;100486.88;4990986;28;20050;-56
2021/01/16 01:49:06;;;;;;;0.35;0.10;;;;;;;9.02;87.58;100494.16;4991298;28;20085;-53
2021/01/16 01:51:34;;;;;;;1.08;0.20;;;;;;;9.03;87.44;100495.75;4972779;28;20050;-57
2021/01/16 01:54:02;;;;;;;0.15;0.15;;;;;;;9.03;87.82;100490.25;4973590;28;20050;-53
2021/01/16 01:56:29;;;;;;;0.30;0.30;;;;;;;9.03;87.53;100489.44;4975962;28;20443;-55
2021/01/16 01:58:58;;;;;;;0.13;0.13;;;;;;;9.02;87.78;100483.13;4990964;28;20456;-57
2021/01/16 02:01:28;;;;;;;0.10;0.10;;;;;;;9.05;87.75;100482.41;4997070;28;20038;-56
2021/01/16 02:03:57;;;;;;;0.10;0.10;;;;;;;9.05;87.76;100485.19;4991435;28;20093;-54
2021/01/16 02:06:23;;;;;;;0.55;0.30;;;;;;;9.05;87.92;100490.69;4989388;28;20097;-58
2021/01/16 02:08:49;;;;;;;0.47;0.25;;;;;;;9.08;88.26;100478.97;4993148;28;20640;-56
2021/01/16 02:11:16;;;;;;;0.10;0.10;;;;;;;9.11;88.08;100480.25;4998256;28;20046;-55
2021/01/16 02:13:43;;;;;;;0.10;0.10;;;;;;;9.14;88.34;100491.44;4977465;28;20050;-55
2021/01/16 02:16:15;;;;;;;0.00;0.00;;;;;;;9.18;88.29;100481.31;4994028;28;20042;-57
2021/01/16 02:18:45;;;;;;;;;;;;;;;9.22;88.72;100488.91;4995695;28;20069;-55
2021/01/16 02:21:17;;;;;;;0.08;0.00;;;;;;;9.28;88.17;100490.31;4976453;28;20269;-54
2021/01/16 02:24:17;;;;;;;0.17;0.10;;;;;;;9.32;88.24;100494.00;4994675;28;20066;-54
2021/01/16 02:27:19;;;;;;;0.00;0.00;;;;;;;9.36;88.25;100492.16;4969525;28;20109;-56
2021/01/16 02:29:45;;;;;;;0.40;0.10;;;;;;;9.38;88.12;100500.91;4979850;28;20050;-57
2021/01/16 02:32:14;;;;;;;0.82;0.40;;;;;;;9.39;88.15;100497.81;4994407;28;20485;-53
2021/01/16 02:34:41;;;;;;;0.68;0.20;;;;;;;9.39;88.08;100497.00;4976062;28;20055;-56
2021/01/16 02:37:30;;;;;;;0.03;0.00;;;;;;;9.39;88.34;100486.75;4975051;28;20042;-55
2021/01/16 02:40:20;;;;;;;0.00;0.00;;;;;;;9.39;88.31;100497.00;4994109;28;20042;-56
2021/01/16 02:43:19;;;;;;;0.10;0.08;;;;;;;9.38;88.52;100498.13;4993842;28;20038;-52
2021/01/16 02:46:21;;;;;;;0.03;0.00;;;;;;;9.36;88.63;100500.44;4995206;28;20035;-56
2021/01/16 02:49:26;;;;;;;0.00;0.00;;;;;;;9.35;88.82;100502.41;4994020;28;20074;-58
2021/01/16 02:52:06;;;;;;;0.00;0.00;;;;;;;9.35;88.90;100493.31;4988671;28;20501;-52
2021/01/16 02:54:38;;;;;;;0.10;0.00;;;;;;;9.36;89.20;100503.22;4990561;28;20409;-54
2021/01/16 02:57:06;;;;;;;0.00;0.00;;;;;;;9.39;89.19;100508.06;4977884;28;20077;-53
2021/01/16 02:59:43;;;;;;;0.10;0.10;;;;;;;9.40;89.54;100527.03;4992260;28;20540;-57
2021/01/16 03:02:11;;;;;;;0.10;0.00;;;;;;;9.41;89.41;100534.19;4991800;28;20046;-59
2021/01/16 03:04:39;;;;;;;0.10;0.10;;;;;;;9.41;89.42;100527.84;4992362;28;20047;-58
2021/01/16 03:07:09;;;;;;;0.20;0.20;;;;;;;9.38;89.69;100529.34;4993457;28;20046;-55
2021/01/16 03:09:37;;;;;;;0.10;0.10;;;;;;;9.36;89.62;100542.72;4997148;28;20105;-56
2021/01/16 03:12:04;;;;;;;0.57;0.10;;;;;;;9.33;89.73;100548.09;4993051;28;20113;-55
2021/01/16 03:14:36;;;;;;;0.10;0.10;;;;;;;9.28;90.12;100534.50;4977115;28;20046;-55
2021/01/16 03:17:41;;;;;;;6.43;1.25;;;;;;;9.24;90.15;100558.44;4992751;28;20065;-53
2021/01/16 03:20:08;;;;;;;0.35;0.10;;;;;;;9.11;89.29;100558.38;4991627;28;20078;-55
2021/01/16 03:22:34;;;;;;;0.22;0.10;;;;;;;9.06;88.99;100555.03;4993018;28;20125;-53
2021/01/16 03:25:02;;;;;;;1.73;0.25;;;;;;;9.00;88.89;100559.16;4994293;28;20048;-54
2021/01/16 03:27:28;;;;;;;0.75;0.45;;;;;;;8.94;88.71;100566.03;4992946;28;20085;-54
2021/01/16 03:29:54;;;;;;;1.55;0.30;;;;;;;8.89;88.55;100560.72;4976362;28;20047;-59
2021/01/16 03:32:21;;;;;;;0.40;0.28;;;;;;;8.84;88.65;100570.00;4975413;28;20074;-57
2021/01/16 03:34:49;;;;;;;0.57;0.30;;;;;;;8.81;88.51;100570.69;4992844;28;20054;-57
2021/01/16 03:37:17;;;;;;;1.40;0.30;;;;;;;8.75;88.56;100574.81;4993355;28;20122;-57
2021/01/16 03:39:48;;;;;;;2.83;0.55;;;;;;;8.71;88.45;100565.56;4990796;28;20484;-58
2021/01/16 03:42:14;;;;;;;2.55;0.52;;;;;;;8.68;88.32;100588.34;4975485;28;20042;-60
2021/01/16 03:44:41;;;;;;;1.55;0.47;;;;;;;8.62;88.30;100586.91;4994008;28;20519;-57
2021/01/16 03:47:07;;;;;;;5.25;0.75;;;;;;;8.59;88.40;100593.09;4992493;28;20077;-59
2021/01/16 03:49:34;;;;;;;0.75;0.25;;;;;;;8.56;88.27;100596.53;4976187;28;20049;-57
2021/01/16 03:52:03;;;;;;;3.72;0.57;;;;;;;8.56;88.18;100593.78;4971476;28;20073;-59
2021/01/16 03:54:29;;;;;;;6.10;1.13;;;;;;;8.54;87.97;100594.13;4991590;28;20073;-56
2021/01/16 03:56:55;;;;;;;5.57;1.20;;;;;;;8.50;88.03;100586.81;4993362;28;20054;-59
2021/01/16 03:59:22;;;;;;;6.50;0.65;;;;;;;8.47;87.92;100587.53;4992942;28;20062;-59
2021/01/16 04:01:49;;;;;;;4.55;1.15;;;;;;;8.45;87.61;100587.03;4997303;28;20088;-55
2021/01/16 04:04:15;;;;;;;9.55;1.38;;;;;;;8.43;87.73;100597.59;4975564;28;20492;-60
2021/01/16 04:06:42;;;;;;;1.25;0.88;;;;;;;8.38;87.75;100601.38;4992870;28;20396;-57
2021/01/16 04:09:08;;;;;;;4.95;0.85;;;;;;;8.33;87.68;100600.75;4975604;28;20125;-59
2021/01/16 04:11:35;;;;;;;3.78;0.50;;;;;;;8.30;87.61;100595.88;4984110;28;20439;-55
2021/01/16 04:14:02;;;;;;;3.28;1.10;;;;;;;8.24;87.48;100595.25;4992659;28;20084;-56
2021/01/16 04:16:28;;;;;;;5.15;0.93;;;;;;;8.22;87.39;100591.19;4992918;28;20038;-58
2021/01/16 04:18:55;;;;;;;6.88;1.90;;;;;;;8.18;87.41;100596.56;4992513;28;20512;-58
2021/01/16 04:21:21;;;;;;;6.50;0.80;;;;;;;8.15;87.42;100600.00;4992296;28;20081;-58
2021/01/16 04:23:48;;;;;;;5.72;1.25;;;;;;;8.16;87.41;100606.31;4975816;28;20445;-54
2021/01/16 04:26:14;;;;;;;2.70;0.60;;;;;;;8.13;86.84;100605.03;4992661;28;20051;-58
2021/01/16 04:28:40;;;;;;;3.17;0.60;;;;;;;8.15;86.91;100596.44;4993071;28;20046;-59
2021/01/16 04:31:07;;;;;;;2.22;0.60;;;;;;;8.14;86.75;100594.81;4990245;28;20044;-58
2021/01/16 04:33:33;;;;;;;4.25;1.27;;;;;;;8.15;86.82;100619.31;4992433;28;20077;-55
2021/01/16 04:36:00;;;;;;;4.25;0.95;;;;;;;8.11;86.54;100623.03;4992125;28;20050;-57
2021/01/16 04:38:26;;;;;;;2.63;0.68;;;;;;;8.08;86.18;100638.31;4975357;28;20433;-55
2021/01/16 04:40:53;;;;;;;30.40;11.35;;;;;;;8.08;86.21;100634.72;4974363;28;20042;-58
2021/01/16 04:43:21;;;;;;;30.90;10.98;;;;;;;8.07;86.01;100635.88;4992681;28;20046;-59
2021/01/16 04:45:49;;;;;;;14.68;4.15;;;;;;;8.04;85.84;100629.09;4975315;28;20057;-56
2021/01/16 04:48:18;;;;;;;10.32;1.88;;;;;;;8.01;85.54;100618.72;4992177;28;20053;-57
2021/01/16 04:50:49;;;;;;;6.45;1.30;;;;;;;7.95;85.42;100648.41;4992206;28;20050;-58
2021/01/16 04:53:18;;;;;;;7.45;1.60;;;;;;;7.90;85.56;100650.53;4990944;28;20065;-55
2021/01/16 04:55:45;;;;;;;10.05;1.20;;;;;;;7.84;85.54;100646.34;4992686;28;20129;-58
2021/01/16 04:58:12;;;;;;;5.10;0.80;;;;;;;7.79;85.72;100649.28;4992221;28;20057;-53
2021/01/16 05:00:42;;;;;;;5.22;1.10;;;;;;;7.72;85.39;100648.97;4982739;28;20104;-56
2021/01/16 05:03:13;;;;;;;4.93;1.33;;;;;;;7.66;85.53;100640.06;4991336;28;20030;-59
2021/01/16 05:05:41;;;;;;;8.82;1.65;;;;;;;7.62;85.72;100663.94;4992090;28;20125;-54
2021/01/16 05:08:09;;;;;;;3.50;1.20;;;;;;;7.60;85.51;100652.41;4997092;28;20132;-55
2021/01/16 05:10:42;;;;;;;6.63;1.90;;;;;;;7.61;85.39;100661.47;4993830;28;20170;-56
2021/01/16 05:13:23;;;;;;;3.67;0.95;;;;;;;7.60;85.36;100655.16;4973297;28;20093;-58
2021/01/16 05:15:55;;;;;;;8.20;1.65;;;;;;;7.58;85.34;100657.44;4989632;28;20121;-57
2021/01/16 05:18:23;;;;;;;12.77;1.83;;;;;;;7.58;85.27;100660.19;4974445;28;20046;-54
2021/01/16 05:20:50;;;;;;;6.72;1.58;;;;;;;7.55;85.14;100649.00;4991594;28;20050;-57
2021/01/16 05:23:16;;;;;;;10.48;1.80;;;;;;;7.56;85.57;100645.94;4991779;28;20097;-55
2021/01/16 05:25:51;;;;;;;9.82;1.55;;;;;;;7.53;85.03;100652.09;4991721;28;20042;-58
2021/01/16 05:28:22;;;;;;;13.88;2.88;;;;;;;7.50;85.07;100652.75;4991624;28;20093;-57
2021/01/16 05:30:52;;;;;;;14.82;1.55;;;;;;;7.46;85.27;100651.81;4965750;28;20046;-59
2021/01/16 05:33:19;;;;;;;9.23;2.17;;;;;;;7.43;85.18;100648.88;4992011;28;20054;-56
2021/01/16 05:35:48;;;;;;;7.60;2.45;;;;;;;7.43;85.19;100652.44;4990779;28;20508;-58
2021/01/16 05:38:15;;;;;;;14.68;3.15;;;;;;;7.40;85.24;100646.78;4974672;28;20050;-57
2021/01/16 05:40:43;;;;;;;9.73;1.63;;;;;;;7.31;85.10;100644.03;4973515;28;20046;-58
2021/01/16 05:43:10;;;;;;;13.43;1.88;;;;;;;7.27;85.25;100643.88;4991923;28;20373;-54
2021/01/16 05:45:37;;;;;;;8.88;2.40;;;;;;;7.23;85.10;100658.59;4974231;28;20050;-56
2021/01/16 05:48:06;;;;;;;14.18;1.65;;;;;;;7.17;85.23;100660.75;4991532;28;20069;-57
2021/01/16 05:50:39;;;;;;;12.57;2.13;;;;;;;7.12;85.03;100652.63;4972467;28;20057;-58
2021/01/16 05:53:06;;;;;;;15.68;3.50;;;;;;;7.11;85.14;100652.97;4989355;28;20092;-56
2021/01/16 05:55:33;;;;;;;10.90;2.58;;;;;;;7.10;84.99;100660.41;4990315;28;20046;-57
2021/01/16 05:58:08;;;;;;;14.27;1.63;;;;;;;7.09;84.91;100680.00;4974513;28;20050;-57
2021/01/16 06:00:39;;;;;;;12.25;2.47;;;;;;;7.04;85.07;100685.69;4971638;28;20038;-60
2021/01/16 06:03:08;;;;;;;13.95;2.40;;;;;;;7.01;85.07;100684.38;4986650;28;20038;-55
2021/01/16 06:05:35;;;;;;;18.63;2.42;;;;;;;6.98;85.10;100684.19;4972495;28;20493;-56
2021/01/16 06:08:03;;;;;;;9.30;2.20;;;;;;;6.96;85.34;100692.78;4977731;28;20054;-56
2021/01/16 06:10:34;;;;;;;12.98;2.20;;;;;;;6.96;85.26;100689.22;4984864;28;20100;-57
2021/01/16 06:13:12;;;;;;;9.85;2.22;;;;;;;6.95;85.09;100695.84;4982376;28;20050;-55
2021/01/16 06:15:43;;;;;;;6.57;1.70;;;;;;;6.96;85.29;100689.22;4991861;28;20101;-57
2021/01/16 06:18:35;;;;;;;15.03;2.50;;;;;;;6.93;85.09;100698.94;4973285;28;20034;-57
2021/01/16 06:21:05;;;;;;;8.07;1.83;;;;;;;6.96;84.97;100697.47;4991603;28;20288;-58
2021/01/16 06:23:34;;;;;;;14.30;1.90;;;;;;;6.96;85.29;100708.50;4991415;28;20092;-55
2021/01/16 06:26:07;;;;;;;16.48;2.35;;;;;;;6.97;85.08;100708.16;4991634;28;20461;-53
2021/01/16 06:28:57;;;;;;;7.22;1.83;;;;;;;6.95;85.03;100729.69;4991233;28;20050;-52
2021/01/16 06:31:26;;;;;;;12.57;2.17;;;;;;;6.96;85.23;100714.00;4973720;28;20066;-55
2021/01/16 06:34:05;;;;;;;11.13;1.95;;;;;;;6.97;85.09;100723.84;4990750;28;20052;-53
2021/01/16 06:36:34;;;;;;;18.73;2.97;;;;;;;6.97;85.29;100732.13;4990668;28;20066;-54
2021/01/16 06:39:06;;;;;;;18.20;2.60;;;;;;;7.00;85.19;100721.28;4991148;28;20433;-57
2021/01/16 06:41:35;;;;;;;11.90;2.58;;;;;;;7.02;85.36;100732.78;4990179;28;20038;-54
2021/01/16 06:44:12;;;;;;;17.08;4.07;;;;;;;7.02;85.10;100735.53;4973267;28;20121;-57
2021/01/16 06:46:44;;;;;;;14.88;2.25;;;;;;;7.00;84.74;100745.25;4991114;28;20077;-56
2021/01/16 06:49:22;;;;;;;;;;;;;;;6.94;84.89;100739.06;4990405;28;20050;-57
2021/01/16 06:51:58;;;;;;;11.35;2.85;;;;;;;6.88;84.85;100739.56;4990175;28;20012;-58
2021/01/16 06:54:27;;;;;;;10.93;2.17;;;;;;;6.83;84.85;100748.75;4992789;28;20125;-57
2021/01/16 06:57:06;;;;;;;13.25;3.25;;;;;;;6.81;84.98;100750.22;4994214;28;20124;-54
2021/01/16 06:59:33;;;;;;;14.85;2.38;;;;;;;6.80;84.77;100760.44;4994466;28;20090;-56
2021/01/16 07:02:00;;;;;;;15.35;2.92;;;;;;;6.79;85.07;100757.97;4995697;28;20062;-57
2021/01/16 07:04:28;;;;;;;10.95;2.55;;;;;;;6.79;85.05;100769.81;4973858;28;20134;-57
2021/01/16 07:06:55;;;;;;;12.68;2.22;;;;;;;6.77;84.86;100749.25;4989351;28;20685;-53
2021/01/16 07:09:23;;;;;;;17.33;2.88;;;;;;;6.74;84.81;100757.00;4995648;28;20054;-56
2021/01/16 07:11:52;;;;;;;14.35;2.20;;;;;;;6.70;84.86;100760.69;4994895;28;20038;-58
2021/01/16 07:14:19;;;;;;;9.50;2.05;;;;;;;6.64;84.69;100768.31;4993816;28;20050;-57
2021/01/16 07:16:47;;;;;;;18.92;2.78;;;;;;;6.61;84.74;100774.44;4994372;28;20050;-55
2021/01/16 07:19:23;;;;;;;12.32;2.15;;;;;;;6.60;84.92;100788.50;4992900;28;20489;-55
2021/01/16 07:21:50;;;;;;;11.80;3.25;;;;;;;6.58;84.89;100786.06;4993080;28;20377;-55
2021/01/16 07:24:19;;;;;;;19.65;3.85;;;;;;;6.55;85.05;100794.16;4994287;28;20050;-51
2021/01/16 07:26:50;;;;;;;20.85;2.58;;;;;;;6.53;85.26;100802.72;4976333;28;20057;-54
2021/01/16 07:29:17;;;;;;;13.30;2.47;;;;;;;6.51;84.90;100801.41;4993299;28;20042;-56
2021/01/16 07:31:46;;;;;;;9.68;2.33;;;;;;;6.48;84.97;100804.81;4976149;28;20070;-53
2021/01/16 07:34:13;;;;;;;14.25;2.13;;;;;;;6.45;84.94;100792.50;4993575;28;20054;-55
2021/01/16 07:36:40;;;;;;;14.27;2.33;;;;;;;6.44;84.81;100807.34;4993248;28;20042;-55
2021/01/16 07:39:09;;;;;;;15.63;2.67;;;;;;;6.45;85.05;100808.19;4993556;28;20050;-54
2021/01/16 07:41:38;;;;;;;16.90;2.72;;;;;;;6.43;84.84;100805.75;4992344;28;20097;-55
2021/01/16 07:44:04;;;;;;;16.00;3.20;;;;;;;6.44;84.85;100812.03;4993412;28;20061;-53
2021/01/16 07:46:32;;;;;;;14.95;3.10;;;;;;;6.41;85.03;100810.75;4992781;28;20046;-55
2021/01/16 07:49:00;;;;;;;12.95;1.85;;;;;;;6.41;85.18;100808.00;4992688;28;20077;-55
2021/01/16 07:51:34;;;;;;;12.35;2.00;;;;;;;6.39;84.93;100815.75;4974374;28;20042;-52
2021/01/16 07:54:12;;;;;;;7.78;2.00;;;;;;;6.38;84.94;100819.63;4994006;28;20053;-52
2021/01/16 07:56:43;;;;;;;13.60;2.60;;;;;;;6.34;84.96;100824.13;4993016;28;20042;-53
2021/01/16 07:59:21;;;;;;;20.08;6.63;;;;;;;6.33;85.04;100839.00;4974574;28;20505;-56
2021/01/16 08:02:25;;;;;;;14.15;2.20;;;;;;;6.31;85.30;100826.69;4995524;28;20121;-52
2021/01/16 08:05:16;;;;;;;9.02;2.30;;;;;;;6.28;85.24;100825.38;4973563;28;20043;-59
2021/01/16 08:07:54;;;;;;;11.82;2.55;;;;;;;6.26;85.40;100843.31;4973180;28;20120;-57
2021/01/16 08:10:25;;;;;;;12.93;2.65;;;;;;;6.25;85.29;100831.50;4995234;28;20070;-54
2021/01/16 08:12:59;;;;;;;18.10;3.15;;;;;;;6.22;85.20;100837.66;4992532;28;20049;-53
2021/01/16 08:15:30;;;;;;;8.07;2.83;;;;;;;6.21;85.48;100838.78;4993160;28;20378;-52
2021/01/16 08:18:02;;;;;;;13.18;2.40;;;;;;;6.20;85.49;100842.63;4974161;28;20043;-51
2021/01/16 08:20:47;;;;;;;16.40;2.90;;;;;;;6.19;85.42;100838.28;4992708;28;20504;-54
2021/01/16 08:23:22;;;;;;;14.57;4.60;;;;;;;6.17;85.47;100850.72;4993027;28;20386;-56
2021/01/16 08:25:50;;;;;;;12.57;2.67;;;;;;;6.17;85.48;100859.75;4992110;28;20065;-53
2021/01/16 08:28:27;;;;;;;18.67;2.67;;;;;;;6.17;85.76;100862.50;4975151;28;20077;-55
2021/01/16 08:30:53;;;;;;;15.65;4.25;;;;;;;6.21;85.48;100862.69;4992296;28;20104;-53
2021/01/16 08:33:40;;;;;;;21.88;5.20;;;;;;;6.21;85.48;100874.50;4992589;28;20078;-50
2021/01/16 08:36:18;;;;;;;15.93;2.47;;;;;;;6.20;85.26;100889.38;4991218;28;20043;-52
2021/01/16 08:38:45;;;;;;;18.13;2.10;;;;;;;6.20;85.23;100883.06;4973595;28;20121;-54
2021/01/16 08:41:20;;;;;;;18.48;2.63;;;;;;;6.18;85.19;100883.38;4975064;28;20100;-55
2021/01/16 08:43:55;;;;;;;15.93;2.47;;;;;;;6.17;85.27;100887.25;4992326;28;20058;-54
2021/01/16 08:46:35;;;;;;;12.20;2.45;;;;;;;6.18;85.67;100880.63;4991474;28;20104;-54
2021/01/16 08:49:04;;;;;;;20.35;3.72;;;;;;;6.20;85.37;100883.88;4992544;28;20038;-52
2021/01/16 08:51:31;;;;;;;15.40;2.80;;;;;;;6.25;85.46;100889.25;4990900;28;20050;-56
2021/01/16 08:54:10;;;;;;;17.15;3.08;;;;;;;6.25;85.34;100889.25;4991546;28;20100;-56
2021/01/16 08:57:00;;;;;;;16.65;2.40;;;;;;;6.26;85.35;100888.13;4991606;28;20127;-51
2021/01/16 08:59:31;;;;;;;13.07;2.35;;;;;;;6.23;85.21;100872.25;4966192;28;20054;-55
2021/01/16 09:02:11;;;;;;;15.13;2.90;;;;;;;6.20;85.20;100883.88;4994358;28;20141;-50
2021/01/16 09:04:40;;;;;;;13.98;3.80;;;;;;;6.21;84.97;100882.75;4979919;28;20033;-51
2021/01/16 09:07:23;;;;;;;13.30;2.58;;;;;;;6.20;85.05;100900.38;5011954;28;20080;-50
2021/01/16 09:09:58;;;;;;;12.45;2.40;;;;;;;6.20;85.00;100900.38;5012136;28;20663;-55
2021/01/16 09:12:40;;;;;;;18.67;3.67;;;;;;;6.21;85.18;100907.50;5011871;28;20132;-51
2021/01/16 09:15:24;;;;;;;15.27;3.35;;;;;;;6.26;85.29;100914.81;5002105;28;20080;-52
2021/01/16 09:18:04;;;;;;;17.60;3.60;;;;;;;6.28;85.03;100910.63;5000449;28;20078;-54
2021/01/16 09:20:31;;;;;;;14.25;2.50;;;;;;;6.30;84.98;100916.59;4989350;28;20125;-53
2021/01/16 09:23:18;;;;;;;11.80;3.13;;;;;;;6.28;85.03;100929.88;4966001;28;20085;-54
2021/01/16 09:26:03;;;;;;;18.45;2.70;;;;;;;6.29;84.91;100930.69;4986555;28;20057;-54
2021/01/16 09:29:00;;;;;;;14.57;3.28;;;;;;;6.28;84.70;100940.84;4989294;28;20101;-55
2021/01/16 09:31:42;;;;;;;20.77;3.08;;;;;;;6.30;84.89;100941.34;4985851;28;20125;-54
2021/01/16 09:34:23;;;;;;;18.30;3.63;;;;;;;6.30;84.65;100949.59;4988719;28;20388;-52
2021/01/16 09:36:53;;;;;;;14.63;2.72;;;;;;;6.30;84.49;100948.81;4983924;28;20061;-54
2021/01/16 09:39:24;;;;;;;24.83;3.55;;;;;;;6.30;84.64;100960.59;4987758;28;20042;-55
2021/01/16 09:42:03;;;;;;;10.50;2.22;;;;;;;6.30;84.45;100960.59;4986927;28;20087;-54
2021/01/16 09:44:47;;;;;;;8.85;3.47;;;;;;;6.31;84.52;100970.47;4987271;28;20452;-55
2021/01/16 09:47:25;;;;;;;14.50;3.53;;;;;;;6.38;84.41;100967.31;4987546;28;20046;-52
2021/01/16 09:50:16;;;;;;;12.95;2.90;;;;;;;6.34;84.23;100967.13;4963262;28;20125;-55
2021/01/16 09:52:54;;;;;;;19.15;2.70;;;;;;;6.35;84.49;100974.25;4976100;28;20061;-57
2021/01/16 09:55:35;;;;;;;18.48;2.88;;;;;;;6.36;84.27;100975.84;4988207;28;20399;-55
2021/01/16 09:58:02;;;;;;;15.05;3.00;;;;;;;6.37;84.45;100972.00;4985559;28;20038;-56
2021/01/16 10:00:32;;;;;;;15.63;4.65;;;;;;;6.37;84.20;100976.69;4994830;28;20460;-57
2021/01/16 10:03:09;;;;;;;16.75;2.88;;;;;;;6.37;84.37;100977.50;4992880;28;20034;-54
2021/01/16 10:05:38;;;;;;;18.63;3.42;;;;;;;6.37;84.18;100977.50;4987927;28;20046;-59
2021/01/16 10:08:06;;;;;;;10.48;2.80;;;;;;;6.40;84.04;100992.56;4989296;28;20046;-56
2021/01/16 10:10:47;;;;;;;11.13;2.55;;;;;;;6.41;83.62;100978.47;4987662;28;20462;-54
2021/01/16 10:13:30;;;;;;;21.02;2.67;;;;;;;6.43;84.00;100987.25;4987692;28;20050;-51
2021/01/16 10:16:00;;;;;;;;;;;;;;;6.42;83.69;100985.63;4989844;28;20077;-56
2021/01/16 10:18:32;;;;;;;20.40;3.83;;;;;;;6.48;84.03;100997.31;4987120;28;19933;-53
2021/01/16 10:21:04;;;;;;;25.42;5.53;;;;;;;6.50;83.72;101009.63;4989814;28;20049;-54
2021/01/16 10:23:33;;;;;;;14.05;2.95;;;;;;;6.56;83.79;101013.06;4987404;28;20050;-54
2021/01/16 10:26:11;;;;;;;20.63;2.90;;;;;;;6.63;84.08;101014.25;4989259;28;20112;-55
2021/01/16 10:28:39;;;;;;;15.80;3.83;;;;;;;6.68;83.98;101010.56;4971353;28;20543;-57
2021/01/16 10:31:08;;;;;;;14.32;3.47;;;;;;;6.74;83.76;101032.16;4993839;28;20046;-55
2021/01/16 10:33:40;;;;;;;16.58;3.88;;;;;;;6.82;83.89;101035.28;4991744;28;20465;-54
2021/01/16 10:36:19;;;;;;;13.63;3.45;;;;;;;6.82;83.27;101040.78;4993926;28;20404;-53
2021/01/16 10:38:46;;;;;;;13.90;2.67;;;;;;;6.82;83.47;101038.03;4991258;28;20046;-57
2021/01/16 10:41:21;;;;;;;20.63;3.88;;;;;;;6.78;83.30;101042.53;4975446;28;20096;-57
2021/01/16 10:43:59;;;;;;;18.25;3.30;;;;;;;6.74;83.04;101062.41;4991870;28;20050;-55
2021/01/16 10:46:32;;;;;;;16.40;3.60;;;;;;;6.71;83.02;101065.78;4975997;28;20054;-56
2021/01/16 10:49:17;;;;;;;17.65;2.83;;;;;;;6.67;83.00;101069.47;4992376;28;20078;-57
2021/01/16 10:52:03;;;;;;;22.27;3.58;;;;;;;6.65;83.07;101069.78;4974678;28;20065;-56
2021/01/16 10:54:30;;;;;;;12.70;3.13;;;;;;;6.67;83.36;101070.28;4988573;28;20054;-56
2021/01/16 10:56:58;;;;;;;20.42;3.83;;;;;;;6.67;83.52;101072.22;4990955;28;20042;-56
2021/01/16 10:59:27;;;;;;;15.00;3.38;;;;;;;6.68;83.31;101080.16;4992830;28;20125;-52
2021/01/16 11:01:54;;;;;;;19.20;3.60;;;;;;;6.73;83.46;101082.78;4986434;28;20050;-54
2021/01/16 11:04:24;;;;;;;17.98;3.72;;;;;;;6.81;83.46;101083.16;4992445;28;20050;-56
2021/01/16 11:06:58;;;;;;;17.98;4.38;;;;;;;6.93;83.29;101086.19;4990825;28;20131;-55
2021/01/16 11:09:44;;;;;;;21.10;3.58;;;;;;;7.05;82.98;101100.19;4988377;28;20042;-56
2021/01/16 11:12:10;;;;;;;17.63;3.47;;;;;;;7.14;82.64;101095.56;4975064;28;20073;-57
2021/01/16 11:14:37;;;;;;;12.80;3.53;;;;;;;7.22;82.76;101075.53;4990357;28;20073;-56
2021/01/16 11:17:06;;;;;;;16.92;3.63;;;;;;;7.34;82.70;101078.50;4975033;28;20089;-52
2021/01/16 11:19:35;;;;;;;12.48;3.17;;;;;;;7.41;82.37;101069.81;5000722;28;20053;-52
2021/01/16 11:22:09;;;;;;;14.35;3.63;;;;;;;7.40;82.04;101081.94;4988944;28;20108;-55
2021/01/16 11:24:52;;;;;;;12.30;3.42;;;;;;;7.35;81.54;101080.97;4991097;28;20041;-59
2021/01/16 11:27:23;;;;;;;18.38;2.75;;;;;;;7.39;82.24;101092.16;4974609;28;20556;-59
2021/01/16 11:29:51;;;;;;;16.00;3.05;;;;;;;7.43;82.21;101078.56;4975383;28;20034;-57
2021/01/16 11:32:22;;;;;;;18.00;4.78;;;;;;;7.45;81.57;101087.31;4973649;28;20061;-58
2021/01/16 11:35:07;;;;;;;17.80;4.43;;;;;;;7.42;80.88;101102.53;4974494;28;20564;-55
2021/01/16 11:37:48;;;;;;;16.83;3.90;;;;;;;7.42;81.88;101096.22;4989972;28;20507;-59
2021/01/16 11:40:25;;;;;;;12.45;3.75;;;;;;;7.37;81.76;101110.94;4973581;28;20047;-53
2021/01/16 11:43:08;;;;;;;16.63;2.50;;;;;;;7.32;81.41;101106.38;4984053;28;20085;-57
2021/01/16 11:45:35;;;;;;;17.63;2.90;;;;;;;7.35;81.62;101118.72;4992516;28;20461;-57
2021/01/16 11:48:03;;;;;;;20.27;3.65;;;;;;;7.37;81.42;101105.44;4973965;28;20042;-57
2021/01/16 11:50:32;;;;;;;12.77;4.38;;;;;;;7.38;81.25;101118.09;4991179;28;20488;-55